Terminal Aerodrome Forecast
Issued by NWS

Home | Current Version | Previous Version | Text Only | Print | Product List | Glossary On
Versions: 1 2 3 4 5 6 7 8 9 10 11 12 13 14 15 16 17 18 19 20
000
FTUS46 KMTR 280500
TAFMRY
TAF
KMRY 280536Z 2806/0106 26010G15KT P6SM SCT010 SCT025
     FM280800 24010KT P6SM VCSH BKN035
     FM281800 29009KT P6SM SCT040
     FM010200 VRB03KT P6SM SCT030=

USA.gov is the U.S. government's official web portal to all federal, state and local government web resources and services.